Time;durP1;ratioP1;P1;durP2;ratioP2;P2;SDS_P1;SDS_P2;PMS_P1;PMS_P2;Temp;Humidity;BMP_temperature;BMP_pressure;BME280_temperature;BME280_humidity;BME280_pressure;Samples;Min_cycle;Max_cycle;Signal;HPM_P1;HPM_P2
2022/03/30 00:02:21;;;;;;;6.28;1.70;;;-3.70;99.90;;;;;;4970719;28;20055;-75
2022/03/30 00:04:49;;;;;;;4.47;1.90;;;-3.70;99.90;;;;;;4961408;28;20051;-75
2022/03/30 00:07:17;;;;;;;6.25;2.00;;;-3.70;99.90;;;;;;4968266;28;20073;-74
2022/03/30 00:09:44;;;;;;;2.70;1.80;;;-3.70;99.90;;;;;;4953402;29;20062;-74
2022/03/30 00:12:12;;;;;;;4.55;1.40;;;-3.70;99.90;;;;;;4966961;28;20519;-75
2022/03/30 00:14:40;;;;;;;10.40;2.67;;;-3.80;99.90;;;;;;4973859;28;20155;-78
2022/03/30 00:17:11;;;;;;;4.55;1.80;;;-3.80;99.90;;;;;;4973415;28;20054;-75
2022/03/30 00:19:39;;;;;;;2.88;1.80;;;-3.80;99.90;;;;;;4969985;28;20055;-74
2022/03/30 00:22:07;;;;;;;8.15;1.73;;;-3.80;99.90;;;;;;4971885;28;20063;-75
2022/03/30 00:24:34;;;;;;;2.22;1.42;;;-3.80;99.90;;;;;;4974278;28;20058;-74
2022/03/30 00:27:02;;;;;;;1.63;1.15;;;-3.80;99.90;;;;;;4973237;28;20153;-74
2022/03/30 00:29:30;;;;;;;3.30;1.60;;;-3.90;99.90;;;;;;4972434;28;20054;-75
2022/03/30 00:31:57;;;;;;;4.45;1.73;;;-3.90;99.90;;;;;;4955425;28;20058;-74
2022/03/30 00:34:28;;;;;;;3.88;1.85;;;-3.90;99.90;;;;;;4973771;28;20454;-74
2022/03/30 00:36:56;;;;;;;3.50;2.30;;;-3.80;99.90;;;;;;4973184;28;20063;-74
2022/03/30 00:39:24;;;;;;;4.18;2.25;;;-3.80;99.90;;;;;;4955424;28;20456;-75
2022/03/30 00:41:51;;;;;;;3.38;1.90;;;-3.80;99.90;;;;;;4966800;28;20055;-74
2022/03/30 00:44:18;;;;;;;2.38;1.80;;;-3.80;99.90;;;;;;4956704;28;20071;-75
2022/03/30 00:46:46;;;;;;;2.72;1.70;;;-3.90;99.90;;;;;;4948937;28;20060;-75
2022/03/30 00:49:13;;;;;;;3.53;1.50;;;-3.90;99.90;;;;;;4970422;28;20062;-76
2022/03/30 00:51:43;;;;;;;5.38;2.08;;;-3.90;99.90;;;;;;4973228;28;20054;-75
2022/03/30 00:54:11;;;;;;;2.45;1.75;;;-3.90;99.90;;;;;;4968521;28;20054;-74
2022/03/30 00:56:41;;;;;;;4.82;1.67;;;-3.90;99.90;;;;;;4949810;28;20181;-75
2022/03/30 00:59:08;;;;;;;4.15;1.73;;;-3.90;99.90;;;;;;4938480;28;20526;-74
2022/03/30 01:01:36;;;;;;;3.92;1.58;;;-3.90;99.90;;;;;;4955174;28;20097;-74
2022/03/30 01:04:05;;;;;;;2.08;1.40;;;-3.90;99.90;;;;;;4972784;28;20123;-74
2022/03/30 01:06:32;;;;;;;3.10;1.77;;;-3.90;99.90;;;;;;4953104;28;20058;-74
2022/03/30 01:09:02;;;;;;;1.90;1.40;;;-4.00;99.90;;;;;;4973372;28;20065;-75
2022/03/30 01:11:30;;;;;;;2.92;2.10;;;-4.00;99.90;;;;;;4939418;28;20158;-74
2022/03/30 01:13:58;;;;;;;6.25;1.70;;;-4.00;99.90;;;;;;4954703;28;20471;-74
2022/03/30 01:16:26;;;;;;;3.85;1.80;;;-3.90;99.90;;;;;;4940079;28;20149;-74
2022/03/30 01:19:04;;;;;;;5.60;2.00;;;-3.90;99.90;;;;;;4942492;29;20063;-74
2022/03/30 01:21:33;;;;;;;5.13;1.55;;;-3.90;99.90;;;;;;4969587;28;20137;-75
2022/03/30 01:24:01;;;;;;;3.13;1.70;;;-4.00;99.90;;;;;;4954221;28;20163;-75
2022/03/30 01:26:28;;;;;;;2.40;1.48;;;-4.00;99.90;;;;;;4953939;28;20066;-75
2022/03/30 01:28:56;;;;;;;2.85;1.50;;;-4.00;99.90;;;;;;4972734;28;20058;-75
2022/03/30 01:34:09;;;;;;;2.97;1.67;;;-4.00;99.90;;;;;;4969310;28;20062;-74
2022/03/30 01:36:38;;;;;;;4.18;1.90;;;-4.00;99.90;;;;;;4954662;28;20429;-74
2022/03/30 01:39:06;;;;;;;4.18;2.20;;;-4.00;99.90;;;;;;4971044;28;20074;-76
2022/03/30 01:41:33;;;;;;;4.15;2.00;;;-4.00;99.90;;;;;;4972182;28;20401;-74
2022/03/30 01:44:01;;;;;;;4.15;1.80;;;-4.10;99.90;;;;;;4970595;28;20129;-74
2022/03/30 01:46:28;;;;;;;4.32;2.30;;;-4.00;99.90;;;;;;4972083;28;20055;-74
2022/03/30 01:48:55;;;;;;;2.72;1.75;;;-4.10;99.90;;;;;;4972392;28;20388;-74
2022/03/30 01:51:23;;;;;;;5.85;2.00;;;-4.10;99.90;;;;;;4970994;28;20055;-74
2022/03/30 01:53:51;;;;;;;3.70;1.67;;;-4.10;99.90;;;;;;4970767;28;20058;-74
2022/03/30 01:56:22;;;;;;;5.55;1.85;;;-4.10;99.90;;;;;;4954736;28;20051;-74
2022/03/30 01:58:49;;;;;;;4.13;1.90;;;-4.10;99.90;;;;;;4972013;28;20059;-75
2022/03/30 02:01:16;;;;;;;2.95;2.17;;;-4.20;99.90;;;;;;4951934;28;20075;-74
2022/03/30 02:03:44;;;;;;;5.40;1.83;;;-4.20;99.90;;;;;;4972116;28;20551;-74
2022/03/30 02:06:12;;;;;;;2.00;1.70;;;-4.20;99.90;;;;;;4972273;28;20066;-74
2022/03/30 02:08:42;;;;;;;4.07;1.80;;;-4.20;99.90;;;;;;4972318;28;20055;-74
2022/03/30 02:11:10;;;;;;;5.47;1.67;;;-4.10;99.90;;;;;;4970487;28;20051;-74
2022/03/30 02:13:38;;;;;;;2.92;1.75;;;-4.10;99.90;;;;;;4971363;28;20050;-73
2022/03/30 02:16:06;;;;;;;7.80;1.88;;;-4.10;99.90;;;;;;4969380;28;20047;-74
2022/03/30 02:18:34;;;;;;;4.05;1.65;;;-4.10;99.90;;;;;;4968608;28;20078;-73
2022/03/30 02:21:02;;;;;;;4.07;2.13;;;-4.10;99.90;;;;;;4945634;29;20420;-69
2022/03/30 02:23:30;;;;;;;6.03;2.30;;;-4.20;99.90;;;;;;4962393;28;20058;-70
2022/03/30 02:25:57;;;;;;;3.75;1.88;;;-4.20;99.90;;;;;;4971973;28;20053;-70
2022/03/30 02:28:26;;;;;;;4.03;1.35;;;-4.20;99.90;;;;;;4952677;28;20082;-70
2022/03/30 02:30:53;;;;;;;2.40;1.80;;;-4.20;99.90;;;;;;4971757;28;20334;-69
2022/03/30 02:33:21;;;;;;;3.60;1.90;;;-4.20;99.90;;;;;;4971701;28;20065;-69
2022/03/30 02:35:48;;;;;;;2.15;1.70;;;-4.10;99.90;;;;;;4971926;28;20058;-71
2022/03/30 02:38:15;;;;;;;2.00;1.80;;;-4.20;99.90;;;;;;4952212;28;20047;-70
2022/03/30 02:40:43;;;;;;;6.85;1.90;;;-4.20;99.90;;;;;;4971020;28;20057;-70
2022/03/30 02:43:11;;;;;;;6.18;1.90;;;-4.10;99.90;;;;;;4951038;29;20573;-69
2022/03/30 02:45:39;;;;;;;7.05;1.75;;;-4.20;99.90;;;;;;4957043;28;20114;-69
2022/03/30 02:48:19;;;;;;;5.05;1.58;;;-4.20;99.90;;;;;;4969910;28;20125;-70
2022/03/30 02:50:47;;;;;;;2.85;1.45;;;-4.20;99.90;;;;;;4971639;28;20070;-69
2022/03/30 02:53:15;;;;;;;5.20;1.60;;;-4.20;99.90;;;;;;4971297;28;20057;-71
2022/03/30 02:55:43;;;;;;;6.80;1.80;;;-4.20;99.90;;;;;;4949792;29;20062;-70
2022/03/30 02:58:13;;;;;;;2.80;1.42;;;-4.20;99.90;;;;;;4970589;28;20066;-70
2022/03/30 03:00:43;;;;;;;5.63;1.60;;;-4.20;99.90;;;;;;4953764;28;20059;-70
2022/03/30 03:03:10;;;;;;;3.40;2.20;;;-4.20;99.90;;;;;;4919782;29;20082;-70
2022/03/30 03:05:41;;;;;;;4.18;1.77;;;-4.10;99.90;;;;;;4943148;28;20573;-70
2022/03/30 03:08:11;;;;;;;3.67;1.67;;;-4.10;99.90;;;;;;4971929;28;21465;-70
2022/03/30 03:10:42;;;;;;;9.15;3.85;;;-4.00;99.90;;;;;;4950063;29;20060;-70
2022/03/30 03:13:11;;;;;;;3.70;1.70;;;-3.90;99.90;;;;;;4944511;29;20523;-69
2022/03/30 03:15:41;;;;;;;2.50;1.65;;;-3.80;99.90;;;;;;4939009;29;20524;-70
2022/03/30 03:18:08;;;;;;;11.60;1.67;;;-3.80;99.90;;;;;;4969354;28;20427;-70
2022/03/30 03:20:36;;;;;;;2.20;1.63;;;-3.70;99.90;;;;;;4969844;28;20051;-69
2022/03/30 03:23:04;;;;;;;5.57;1.60;;;-3.70;99.90;;;;;;4969995;28;20043;-69
2022/03/30 03:25:33;;;;;;;4.97;2.38;;;-3.70;99.90;;;;;;4971108;28;20058;-69
2022/03/30 03:28:01;;;;;;;3.15;1.70;;;-3.80;99.90;;;;;;4971225;28;20558;-69
2022/03/30 03:30:29;;;;;;;3.50;1.75;;;-3.80;99.90;;;;;;4971267;28;20073;-69
2022/03/30 03:32:59;;;;;;;9.68;2.47;;;-3.80;99.90;;;;;;4967136;28;20047;-69
2022/03/30 03:35:27;;;;;;;9.65;1.30;;;-3.90;99.90;;;;;;4940975;28;20537;-70
2022/03/30 03:37:55;;;;;;;3.03;1.33;;;-3.90;99.90;;;;;;4972960;28;20102;-70
2022/03/30 03:40:23;;;;;;;1.83;1.45;;;-3.90;99.90;;;;;;4957018;28;20083;-71
2022/03/30 03:42:56;;;;;;;2.00;1.40;;;-3.90;99.90;;;;;;4971068;28;20338;-70
2022/03/30 03:45:35;;;;;;;5.30;1.45;;;-3.80;99.90;;;;;;4974696;28;20122;-71
2022/03/30 03:48:14;;;;;;;1.60;1.50;;;-3.90;99.90;;;;;;4953800;29;20476;-75
2022/03/30 03:51:15;;;;;;;3.15;1.40;;;-3.90;99.90;;;;;;4927374;28;20055;-74
2022/03/30 03:53:53;;;;;;;3.15;1.67;;;-3.90;99.90;;;;;;4946731;28;20157;-76
2022/03/30 03:56:51;;;;;;;2.80;1.50;;;-3.90;99.90;;;;;;4957589;28;20064;-76
2022/03/30 03:59:29;;;;;;;4.00;1.58;;;-3.80;99.90;;;;;;4921140;28;20103;-75
2022/03/30 04:01:57;;;;;;;11.32;2.55;;;-3.80;99.90;;;;;;4955988;28;20057;-74
2022/03/30 04:04:26;;;;;;;11.85;1.77;;;-3.70;99.90;;;;;;4957100;28;20070;-74
2022/03/30 04:07:05;;;;;;;8.40;1.77;;;-3.70;99.90;;;;;;4972927;28;20058;-73
2022/03/30 04:09:54;;;;;;;12.35;2.25;;;-3.70;99.90;;;;;;4939547;28;20047;-74
2022/03/30 04:12:22;;;;;;;2.97;1.67;;;-3.60;99.90;;;;;;4952653;28;20526;-74
2022/03/30 04:15:01;;;;;;;4.47;2.00;;;-3.60;99.90;;;;;;4953913;28;20574;-74
2022/03/30 04:17:37;;;;;;;3.92;1.48;;;-3.50;99.90;;;;;;4970456;28;20059;-70
2022/03/30 04:20:07;;;;;;;;;;;-3.40;99.90;;;;;;4953274;28;20075;-70
2022/03/30 04:22:43;;;;;;;4.57;1.75;;;-3.40;99.90;;;;;;4964449;28;19949;-75
2022/03/30 04:25:27;;;;;;;7.45;3.25;;;-3.40;99.90;;;;;;4972536;28;20054;-70
2022/03/30 04:31:41;;;;;;;14.43;3.38;;;-3.40;99.90;;;;;;4936526;29;20039;-75
2022/03/30 04:34:32;;;;;;;10.48;3.53;;;-3.40;99.90;;;;;;4927115;28;20146;-69
2022/03/30 04:37:29;;;;;;;7.97;2.95;;;-3.40;99.90;;;;;;4952992;28;20051;-68
2022/03/30 04:40:11;;;;;;;21.27;3.15;;;-3.40;99.90;;;;;;4949681;29;20157;-70
2022/03/30 04:42:56;;;;;;;4.78;2.25;;;-3.40;99.90;;;;;;4957329;28;20054;-69
2022/03/30 04:45:39;;;;;;;3.50;2.35;;;-3.40;99.90;;;;;;4946827;28;20523;-74
2022/03/30 04:48:14;;;;;;;5.38;2.60;;;-3.40;99.90;;;;;;4939294;28;20145;-70
2022/03/30 04:50:50;;;;;;;5.85;2.05;;;-3.50;99.90;;;;;;4971667;28;20418;-72
2022/03/30 04:53:31;;;;;;;5.63;2.17;;;-3.50;99.90;;;;;;4946829;28;20177;-74
2022/03/30 04:56:15;;;;;;;6.90;2.35;;;-3.50;99.90;;;;;;4938927;28;20042;-69
2022/03/30 04:58:43;;;;;;;5.70;2.95;;;-3.50;99.90;;;;;;4967087;28;20428;-74
2022/03/30 05:01:23;;;;;;;11.48;2.80;;;-3.50;99.90;;;;;;4973534;28;20055;-75
2022/03/30 05:03:59;;;;;;;;;;;-3.50;99.90;;;;;;4941041;28;20154;-74
2022/03/30 05:06:35;;;;;;;4.15;2.17;;;-3.30;99.90;;;;;;4952708;28;20358;-73
2022/03/30 05:09:05;;;;;;;9.13;2.10;;;-3.30;99.90;;;;;;4970669;28;20116;-69
2022/03/30 05:11:37;;;;;;;6.45;2.63;;;-3.20;99.90;;;;;;4940186;28;20412;-75
2022/03/30 05:14:06;;;;;;;10.02;2.55;;;-3.20;99.90;;;;;;4955489;28;20603;-74
2022/03/30 05:16:35;;;;;;;8.77;2.47;;;-3.20;99.90;;;;;;4968792;28;20200;-69
2022/03/30 05:19:20;;;;;;;5.05;2.50;;;-3.10;99.90;;;;;;4938703;29;20051;-69
2022/03/30 05:22:23;;;;;;;8.77;2.20;;;-3.10;99.90;;;;;;4954073;28;20051;-73
2022/03/30 05:25:15;;;;;;;8.07;2.30;;;-3.00;99.90;;;;;;4940762;28;20158;-70
2022/03/30 05:27:54;;;;;;;9.75;3.08;;;-2.80;99.90;;;;;;4965196;28;20054;-74
2022/03/30 05:30:22;;;;;;;6.15;2.78;;;-2.60;99.90;;;;;;4963309;28;20113;-70
2022/03/30 05:32:50;;;;;;;10.45;2.25;;;-2.50;99.90;;;;;;4968386;28;20151;-73
2022/03/30 05:35:18;;;;;;;13.45;2.50;;;-2.30;99.90;;;;;;4936698;28;20078;-73
2022/03/30 05:37:49;;;;;;;14.13;2.55;;;-2.00;99.90;;;;;;4959315;28;20146;-73
2022/03/30 05:40:18;;;;;;;6.82;2.80;;;-1.80;99.90;;;;;;4964942;28;20579;-73
2022/03/30 05:42:46;;;;;;;8.68;2.20;;;-1.70;99.90;;;;;;4933975;28;20059;-74
2022/03/30 05:45:17;;;;;;;8.00;2.17;;;-1.50;99.90;;;;;;4955301;28;20459;-74
2022/03/30 05:47:45;;;;;;;11.38;1.95;;;-1.20;99.90;;;;;;4960094;28;20060;-73
2022/03/30 05:50:12;;;;;;;5.90;1.58;;;-1.10;99.90;;;;;;4942458;28;20055;-74
2022/03/30 05:52:40;;;;;;;11.70;2.33;;;-1.00;99.90;;;;;;4969244;28;20055;-74
2022/03/30 05:55:10;;;;;;;15.85;2.50;;;-1.00;99.90;;;;;;4946569;28;20082;-69
2022/03/30 05:57:42;;;;;;;8.85;1.90;;;-1.00;99.90;;;;;;4952383;28;20106;-70
2022/03/30 06:00:13;;;;;;;5.10;1.95;;;-0.80;99.90;;;;;;4981123;28;20058;-73
2022/03/30 06:02:41;;;;;;;7.00;1.52;;;-0.70;99.90;;;;;;4972863;28;20050;-75
2022/03/30 06:05:10;;;;;;;12.55;2.20;;;-0.70;99.90;;;;;;4946383;28;20109;-74
2022/03/30 06:07:37;;;;;;;7.88;2.53;;;-0.60;99.90;;;;;;4965869;28;20059;-74
2022/03/30 06:10:09;;;;;;;4.40;1.77;;;-0.50;99.90;;;;;;4969459;28;20055;-74
2022/03/30 06:12:46;;;;;;;;;;;-0.40;99.90;;;;;;4970374;28;20054;-75
2022/03/30 06:15:25;;;;;;;7.15;2.25;;;-0.40;99.90;;;;;;4972265;28;19926;-76
2022/03/30 06:17:54;;;;;;;14.27;2.28;;;-0.20;99.90;;;;;;4913313;29;20582;-70
2022/03/30 06:20:30;;;;;;;11.02;1.70;;;-0.10;99.90;;;;;;4936628;29;20050;-75
2022/03/30 06:23:01;;;;;;;5.10;2.17;;;-0.20;99.90;;;;;;4933132;28;20059;-76
2022/03/30 06:25:36;;;;;;;12.63;2.40;;;-0.20;99.90;;;;;;4954249;28;20058;-75
2022/03/30 06:28:30;;;;;;;14.57;2.17;;;-0.10;99.90;;;;;;4971284;28;20148;-75
2022/03/30 06:31:07;;;;;;;25.77;5.43;;;0.40;99.90;;;;;;4962994;28;20220;-75
2022/03/30 06:33:42;;;;;;;12.07;2.35;;;0.70;99.90;;;;;;4967057;28;20059;-75
2022/03/30 06:36:28;;;;;;;8.18;1.98;;;0.90;99.90;;;;;;4942028;28;20534;-70
2022/03/30 06:39:18;;;;;;;5.00;1.80;;;1.70;99.90;;;;;;4971898;28;20034;-75
2022/03/30 06:49:39;;;;;;;8.32;1.80;;;3.10;94.90;;;;;;4940798;28;20534;-70
2022/03/30 06:52:12;;;;;;;10.20;1.92;;;3.60;93.30;;;;;;4950887;28;20071;-75
2022/03/30 06:54:59;;;;;;;8.52;1.85;;;4.40;89.40;;;;;;4935447;28;20058;-68
2022/03/30 06:57:49;;;;;;;7.70;1.70;;;4.60;82.60;;;;;;4945911;28;20167;-71
2022/03/30 07:00:18;;;;;;;18.45;2.78;;;4.20;81.80;;;;;;4964660;28;20051;-70
2022/03/30 07:02:46;;;;;;;6.10;2.20;;;3.60;84.50;;;;;;4965589;28;20050;-70
2022/03/30 07:05:14;;;;;;;7.03;1.88;;;3.70;88.60;;;;;;4970705;28;20055;-77
2022/03/30 07:10:31;;;;;;;7.38;1.88;;;5.00;78.80;;;;;;4947690;28;20513;-76
2022/03/30 07:13:00;;;;;;;21.42;2.42;;;5.10;78.40;;;;;;4940527;28;20420;-76
2022/03/30 07:15:28;;;;;;;8.57;1.80;;;5.00;77.00;;;;;;4961846;28;20145;-70
2022/03/30 07:18:02;;;;;;;11.68;1.92;;;5.10;78.90;;;;;;4960818;28;20059;-77
2022/03/30 07:20:33;;;;;;;5.00;1.73;;;5.40;77.40;;;;;;4958510;28;20673;-77
2022/03/30 07:23:03;;;;;;;7.18;1.50;;;5.80;73.80;;;;;;4943439;28;20101;-78
2022/03/30 07:25:33;;;;;;;13.52;1.50;;;6.10;72.30;;;;;;4958183;28;20102;-76
2022/03/30 07:28:05;;;;;;;11.02;1.73;;;6.50;70.00;;;;;;4944029;28;20066;-71
2022/03/30 07:30:33;;;;;;;14.55;2.22;;;6.40;70.40;;;;;;4946845;28;20109;-76
2022/03/30 07:33:03;;;;;;;11.90;1.48;;;6.50;68.70;;;;;;4946591;28;20141;-70
2022/03/30 07:35:32;;;;;;;7.95;2.03;;;5.70;69.50;;;;;;4962931;28;20055;-76
2022/03/30 07:38:01;;;;;;;10.65;2.08;;;4.90;72.20;;;;;;4963374;28;20150;-74
2022/03/30 07:40:30;;;;;;;8.57;1.65;;;4.10;75.00;;;;;;4948397;28;20051;-76
2022/03/30 07:42:58;;;;;;;18.23;1.50;;;3.50;79.60;;;;;;4947033;28;20047;-70
2022/03/30 07:45:27;;;;;;;16.38;1.50;;;3.20;83.10;;;;;;4951237;28;20121;-76
2022/03/30 07:48:55;;;;;;;4.90;1.15;;;2.90;88.20;;;;;;4964557;28;20065;-71
2022/03/30 07:51:25;;;;;;;10.68;1.48;;;3.00;90.90;;;;;;4953963;28;20059;-70
2022/03/30 07:53:55;;;;;;;13.82;2.20;;;3.10;90.80;;;;;;4967199;28;20582;-68
2022/03/30 07:56:26;;;;;;;13.52;1.85;;;3.10;91.10;;;;;;4949615;28;20126;-69
2022/03/30 07:58:59;;;;;;;5.20;1.83;;;3.40;91.10;;;;;;4967225;28;20057;-75
2022/03/30 08:01:27;;;;;;;2.38;1.05;;;3.70;90.80;;;;;;4935926;28;20162;-71
2022/03/30 08:03:59;;;;;;;15.48;1.60;;;4.00;88.10;;;;;;4968048;28;20050;-69
2022/03/30 08:06:30;;;;;;;5.53;1.45;;;3.90;86.40;;;;;;4950274;28;20063;-69
2022/03/30 08:08:58;;;;;;;10.25;1.30;;;3.60;87.60;;;;;;4952956;28;20065;-69
2022/03/30 08:11:26;;;;;;;11.25;1.50;;;3.30;91.50;;;;;;4951924;28;20059;-69
2022/03/30 08:13:56;;;;;;;9.40;1.83;;;3.40;91.60;;;;;;4954911;28;20063;-69
2022/03/30 08:16:34;;;;;;;7.50;1.02;;;3.20;93.30;;;;;;4972453;28;20133;-69
2022/03/30 08:19:03;;;;;;;8.85;1.73;;;2.90;99.90;;;;;;4953383;29;20066;-70
2022/03/30 08:24:29;;;;;;;3.45;1.00;;;2.40;99.90;;;;;;4964045;28;20521;-69
2022/03/30 08:26:59;;;;;;;7.35;1.30;;;2.40;99.90;;;;;;4970540;28;20047;-75
2022/03/30 08:29:27;;;;;;;24.30;8.73;;;2.50;99.90;;;;;;4964883;28;20047;-75
2022/03/30 08:31:55;;;;;;;9.82;2.08;;;2.80;99.90;;;;;;4934668;28;20432;-76
2022/03/30 08:34:23;;;;;;;6.18;1.17;;;3.10;99.90;;;;;;4968028;28;20051;-68
2022/03/30 08:36:52;;;;;;;6.03;1.30;;;2.90;99.90;;;;;;4960110;28;20440;-68
2022/03/30 08:39:20;;;;;;;5.55;1.10;;;2.70;99.90;;;;;;4963559;28;20106;-68
2022/03/30 08:41:48;;;;;;;1.92;1.25;;;2.40;99.90;;;;;;4950910;28;20094;-69
2022/03/30 08:45:22;;;;;;;5.18;1.02;;;2.30;99.90;;;;;;4952009;28;20459;-70
2022/03/30 08:47:50;;;;;;;2.40;1.20;;;2.20;99.90;;;;;;4870778;28;20049;-69
2022/03/30 08:50:19;;;;;;;2.85;0.95;;;2.10;99.90;;;;;;4951557;28;20570;-69
2022/03/30 08:52:49;;;;;;;1.88;1.20;;;2.10;99.90;;;;;;4970818;28;20125;-68
2022/03/30 08:55:17;;;;;;;1.88;1.10;;;2.10;99.90;;;;;;4969387;28;20050;-68
2022/03/30 08:57:45;;;;;;;2.20;0.95;;;1.90;99.90;;;;;;4954510;28;20105;-69
2022/03/30 09:00:19;;;;;;;7.05;1.42;;;1.80;99.90;;;;;;4974951;28;20151;-78
2022/03/30 09:02:59;;;;;;;6.53;1.70;;;1.90;99.90;;;;;;4948450;28;20054;-75
2022/03/30 09:05:42;;;;;;;7.60;1.30;;;2.40;99.90;;;;;;4948601;28;20563;-73
2022/03/30 09:08:24;;;;;;;4.50;1.52;;;2.90;99.90;;;;;;4966997;28;20459;-78
2022/03/30 09:10:55;;;;;;;3.65;1.40;;;3.10;99.90;;;;;;4959402;28;20589;-76
2022/03/30 09:13:23;;;;;;;6.03;2.15;;;3.00;99.90;;;;;;4932418;28;20143;-77
2022/03/30 09:16:00;;;;;;;5.78;2.55;;;2.60;99.90;;;;;;4950115;28;20043;-74
2022/03/30 09:18:28;;;;;;;3.40;1.30;;;2.30;99.90;;;;;;4970370;28;20416;-70
2022/03/30 09:21:17;;;;;;;1.88;1.40;;;2.10;99.90;;;;;;4969686;28;20053;-77
2022/03/30 09:23:52;;;;;;;2.47;1.27;;;2.00;99.90;;;;;;4971834;28;20120;-70
2022/03/30 09:26:22;;;;;;;5.68;1.48;;;1.90;99.90;;;;;;4971215;28;20659;-78
2022/03/30 09:28:57;;;;;;;4.03;1.13;;;1.60;99.90;;;;;;4954420;28;20467;-76
2022/03/30 09:31:27;;;;;;;4.93;1.10;;;1.60;99.90;;;;;;4973186;28;20067;-69
2022/03/30 09:34:02;;;;;;;3.20;1.27;;;1.40;99.90;;;;;;4946073;28;20436;-70
2022/03/30 09:36:40;;;;;;;3.70;1.40;;;1.40;99.90;;;;;;4942884;28;20055;-69
2022/03/30 09:39:40;;;;;;;7.90;1.48;;;1.50;99.90;;;;;;4955297;28;20051;-77
2022/03/30 09:42:34;;;;;;;6.78;1.90;;;1.50;99.90;;;;;;4946763;28;20072;-76
2022/03/30 09:45:30;;;;;;;3.75;1.40;;;1.40;99.90;;;;;;4965388;28;20050;-72
2022/03/30 09:48:23;;;;;;;1.73;1.13;;;1.50;99.90;;;;;;4931176;28;20055;-77
2022/03/30 09:51:06;;;;;;;5.78;1.40;;;1.40;99.90;;;;;;4954009;28;20950;-79
2022/03/30 09:53:41;;;;;;;10.48;2.17;;;1.20;99.90;;;;;;4919074;28;20050;-71
2022/03/30 09:56:25;;;;;;;4.45;1.42;;;1.10;99.90;;;;;;4950200;28;20059;-77
2022/03/30 09:59:00;;;;;;;;;;;1.20;99.90;;;;;;4969292;28;20081;-74
2022/03/30 10:01:33;;;;;;;5.18;1.70;;;1.20;99.90;;;;;;4965578;28;19930;-76
2022/03/30 10:04:08;;;;;;;4.47;1.65;;;1.50;99.90;;;;;;4958271;28;20066;-74
2022/03/30 10:06:42;;;;;;;4.72;1.17;;;1.80;99.90;;;;;;4946923;28;20439;-76
2022/03/30 10:09:23;;;;;;;7.13;1.25;;;1.90;99.90;;;;;;4970326;28;20059;-77
2022/03/30 10:11:54;;;;;;;1.60;0.80;;;2.50;99.90;;;;;;4948694;28;20054;-70
2022/03/30 10:14:22;;;;;;;5.53;1.23;;;4.30;99.90;;;;;;4949299;28;20057;-75
2022/03/30 10:16:50;;;;;;;4.93;1.30;;;5.90;99.90;;;;;;4933328;28;20150;-70
2022/03/30 10:19:23;;;;;;;6.75;1.20;;;7.60;91.30;;;;;;4949947;28;20054;-70
2022/03/30 10:22:11;;;;;;;3.55;2.00;;;7.40;79.60;;;;;;4926811;28;20512;-77
2022/03/30 10:24:57;;;;;;;4.82;1.50;;;6.00;86.70;;;;;;4953799;28;20503;-71
2022/03/30 10:27:34;;;;;;;9.07;1.80;;;5.40;91.60;;;;;;4974460;28;20055;-70
2022/03/30 10:30:06;;;;;;;9.45;2.10;;;5.00;96.70;;;;;;4951246;28;20129;-77
2022/03/30 10:32:41;;;;;;;10.10;2.10;;;5.10;97.60;;;;;;4952450;28;20561;-72
2022/03/30 10:35:12;;;;;;;;;;;5.20;98.00;;;;;;4952109;28;20504;-77
2022/03/30 10:37:48;;;;;;;2.60;1.40;;;5.30;95.30;;;;;;4957704;28;19933;-76
2022/03/30 10:40:19;;;;;;;2.13;0.98;;;5.10;95.30;;;;;;4959730;28;20134;-75
2022/03/30 10:43:25;;;;;;;2.22;1.02;;;4.80;95.90;;;;;;4958409;28;20750;-70
2022/03/30 10:45:59;;;;;;;4.32;1.50;;;5.20;96.90;;;;;;4929072;28;20150;-70
2022/03/30 10:48:38;;;;;;;6.07;1.55;;;6.10;93.80;;;;;;4947557;28;20051;-76
2022/03/30 10:51:19;;;;;;;2.63;0.93;;;6.50;88.40;;;;;;4945939;28;20062;-69
2022/03/30 10:53:49;;;;;;;5.20;1.13;;;6.70;86.60;;;;;;4963697;28;20078;-69
2022/03/30 10:56:48;;;;;;;5.80;1.20;;;6.70;88.30;;;;;;4967991;28;20050;-76
2022/03/30 10:59:18;;;;;;;4.55;0.93;;;7.70;80.20;;;;;;4946183;28;20118;-74
2022/03/30 11:01:49;;;;;;;3.28;1.13;;;7.70;76.70;;;;;;4962816;28;20055;-70
2022/03/30 11:04:25;;;;;;;3.40;1.42;;;8.60;74.50;;;;;;4934051;28;20145;-71
2022/03/30 11:07:41;;;;;;;23.80;14.20;;;;;;;;;;4960927;28;20081;-69
2022/03/30 11:10:29;;;;;;;2.40;2.20;;;10.50;63.30;;;;;;4918396;28;20194;-71
2022/03/30 11:13:11;;;;;;;5.97;2.10;;;10.30;59.60;;;;;;4928535;29;20086;-70
2022/03/30 11:16:14;;;;;;;3.53;1.10;;;9.40;60.20;;;;;;4962122;28;20051;-69
2022/03/30 11:19:05;;;;;;;4.88;1.40;;;9.10;61.20;;;;;;4955046;28;20501;-72
2022/03/30 11:21:34;;;;;;;1.48;0.77;;;9.80;59.50;;;;;;4963370;28;20465;-71
2022/03/30 11:24:11;;;;;;;4.72;1.30;;;10.50;57.90;;;;;;4975257;28;20054;-71
2022/03/30 11:27:19;;;;;;;8.48;1.08;;;11.70;55.10;;;;;;4974456;28;20054;-71
2022/03/30 11:30:14;;;;;;;2.67;0.80;;;13.30;52.10;;;;;;4959399;28;20059;-70
2022/03/30 11:33:04;;;;;;;3.40;1.30;;;13.90;49.70;;;;;;4949823;29;20122;-69
2022/03/30 11:35:37;;;;;;;7.68;1.55;;;14.20;48.30;;;;;;4969140;28;20515;-70
2022/03/30 11:38:25;;;;;;;7.75;0.98;;;14.80;47.40;;;;;;4965898;28;20142;-70
2022/03/30 11:41:05;;;;;;;1.63;0.80;;;14.70;47.30;;;;;;4949574;28;20236;-69
2022/03/30 11:45:12;;;;;;;3.33;0.90;;;14.30;47.50;;;;;;4967740;28;20047;-71
2022/03/30 11:46:29;;;;;;;1.35;0.95;;;14.30;47.30;;;;;;4965861;28;20062;-71
2022/03/30 11:49:06;;;;;;;3.78;1.02;;;14.50;46.80;;;;;;4953959;29;20059;-70
2022/03/30 11:51:36;;;;;;;1.73;0.80;;;14.70;45.40;;;;;;4945871;28;20057;-70
2022/03/30 11:54:15;;;;;;;10.05;1.00;;;14.10;46.20;;;;;;4973276;28;20121;-70
2022/03/30 11:56:43;;;;;;;9.30;1.23;;;13.70;47.30;;;;;;4951045;28;20138;-70
2022/03/30 11:59:10;;;;;;;7.47;1.23;;;13.90;47.70;;;;;;4954073;29;20059;-71
2022/03/30 12:01:44;;;;;;;3.20;0.90;;;14.40;47.90;;;;;;4942497;28;20090;-70
2022/03/30 12:04:14;;;;;;;5.97;0.80;;;14.40;44.90;;;;;;4952952;29;20059;-70
2022/03/30 12:06:47;;;;;;;4.55;0.93;;;14.10;45.70;;;;;;4965266;28;20058;-70
2022/03/30 12:09:16;;;;;;;2.47;0.70;;;14.10;45.10;;;;;;4956817;28;20057;-70
2022/03/30 12:11:45;;;;;;;2.47;0.75;;;14.30;45.30;;;;;;4941630;29;20559;-70
2022/03/30 12:14:25;;;;;;;18.55;2.00;;;14.60;44.80;;;;;;4956178;28;20055;-70
2022/03/30 12:16:53;;;;;;;3.67;1.13;;;14.90;44.20;;;;;;4949241;28;20492;-70
2022/03/30 12:19:22;;;;;;;7.07;1.17;;;15.00;43.90;;;;;;4952481;28;20054;-70
2022/03/30 12:21:53;;;;;;;10.70;1.08;;;14.40;44.30;;;;;;4961621;28;20079;-76
2022/03/30 12:24:33;;;;;;;5.97;1.20;;;13.60;44.90;;;;;;4966352;28;20058;-75
2022/03/30 12:27:01;;;;;;;3.67;0.90;;;13.50;45.10;;;;;;4963102;28;20132;-75
2022/03/30 12:29:34;;;;;;;4.40;0.90;;;12.90;45.10;;;;;;4948375;28;20084;-73
2022/03/30 12:32:02;;;;;;;6.75;1.23;;;12.30;46.40;;;;;;4952290;28;20065;-76
2022/03/30 12:34:37;;;;;;;7.30;1.10;;;12.00;46.50;;;;;;4961314;28;20481;-75
2022/03/30 12:37:09;;;;;;;5.47;1.00;;;12.00;46.80;;;;;;4961302;28;20657;-70
2022/03/30 12:39:42;;;;;;;2.65;0.80;;;12.10;47.60;;;;;;4966589;28;20602;-69
2022/03/30 12:42:26;;;;;;;4.07;0.68;;;12.20;47.20;;;;;;4964659;28;20065;-70
2022/03/30 12:44:56;;;;;;;3.85;0.68;;;11.80;47.70;;;;;;4959817;28;20566;-76
2022/03/30 12:47:39;;;;;;;1.00;0.70;;;11.60;48.40;;;;;;4965618;28;20062;-72
2022/03/30 12:50:12;;;;;;;1.30;0.65;;;11.70;48.50;;;;;;4943098;28;20054;-71
2022/03/30 12:52:42;;;;;;;5.20;1.45;;;12.10;48.30;;;;;;4937075;28;20149;-72
2022/03/30 12:55:27;;;;;;;2.83;0.60;;;12.50;47.40;;;;;;4957945;28;20535;-71
2022/03/30 12:57:58;;;;;;;4.00;1.33;;;13.70;46.00;;;;;;4941189;29;20063;-70
2022/03/30 13:00:31;;;;;;;4.57;1.52;;;14.60;44.70;;;;;;4952398;28;20143;-70
2022/03/30 13:03:13;;;;;;;3.63;0.85;;;15.50;43.00;;;;;;4965758;28;20137;-69
2022/03/30 13:06:29;;;;;;;4.85;0.70;;;15.70;42.90;;;;;;4971641;28;20149;-71
2022/03/30 13:09:12;;;;;;;2.97;1.00;;;16.20;42.30;;;;;;4937926;28;20157;-75
2022/03/30 13:11:52;;;;;;;4.75;1.20;;;16.50;41.70;;;;;;4971713;28;20047;-71
2022/03/30 13:14:32;;;;;;;2.13;0.88;;;16.80;40.90;;;;;;4968829;28;20062;-68
2022/03/30 13:17:07;;;;;;;4.32;1.02;;;16.70;41.50;;;;;;4947189;28;20059;-69
2022/03/30 13:19:35;;;;;;;5.00;1.17;;;16.70;41.80;;;;;;4950176;29;20424;-69
2022/03/30 13:22:07;;;;;;;5.30;1.13;;;16.70;41.30;;;;;;4949331;28;20063;-70
2022/03/30 13:24:36;;;;;;;2.90;0.90;;;16.80;41.00;;;;;;5237570;23;20050;-79
2022/03/30 13:27:05;;;;;;;2.45;0.60;;;16.70;39.90;;;;;;4979657;28;20081;-78
2022/03/30 13:29:33;;;;;;;4.70;1.13;;;16.40;40.20;;;;;;4982028;28;20057;-79
2022/03/30 13:32:00;;;;;;;1.70;1.02;;;16.20;40.50;;;;;;4985203;28;20116;-79
2022/03/30 13:34:28;;;;;;;3.30;0.90;;;15.70;41.80;;;;;;4990147;28;20070;-82
2022/03/30 13:36:58;;;;;;;5.03;0.90;;;16.20;41.90;;;;;;4972068;28;20079;-77
2022/03/30 13:39:28;;;;;;;4.18;1.52;;;15.80;41.80;;;;;;4989083;28;20058;-79
2022/03/30 13:41:56;;;;;;;6.78;1.13;;;15.60;41.60;;;;;;4963316;28;20604;-81
2022/03/30 13:44:25;;;;;;;3.30;0.95;;;15.60;41.70;;;;;;4988626;28;20062;-82
2022/03/30 13:46:52;;;;;;;4.85;1.58;;;15.70;41.70;;;;;;4988880;28;20141;-80